sensor_id;sensor_type;location;lat;lon;timestamp;pressure;altitude;pressure_sealevel;temperature;humidity
33265;BME280;31404;53.974;-1.086;2023-07-31T00:00:35;100291.29;;;13.47;100.00
33265;BME280;31404;53.974;-1.086;2023-07-31T00:05:35;100289.85;;;14.43;100.00
33265;BME280;31404;53.974;-1.086;2023-07-31T00:10:34;100286.98;;;14.34;100.00
33265;BME280;31404;53.974;-1.086;2023-07-31T00:15:35;100285.13;;;13.88;100.00
33265;BME280;31404;53.974;-1.086;2023-07-31T00:20:35;100276.99;;;13.37;100.00
33265;BME280;31404;53.974;-1.086;2023-07-31T00:25:34;100266.68;;;12.96;100.00
33265;BME280;31404;53.974;-1.086;2023-07-31T00:30:34;100253.81;;;13.42;100.00
33265;BME280;31404;53.974;-1.086;2023-07-31T00:40:36;100237.35;;;14.03;100.00
33265;BME280;31404;53.974;-1.086;2023-07-31T00:45:34;100236.37;;;13.82;100.00
33265;BME280;31404;53.974;-1.086;2023-07-31T00:50:35;100229.54;;;12.90;100.00
33265;BME280;31404;53.974;-1.086;2023-07-31T00:55:34;100222.16;;;15.10;100.00
33265;BME280;31404;53.974;-1.086;2023-07-31T01:00:35;100216.36;;;14.10;100.00
33265;BME280;31404;53.974;-1.086;2023-07-31T01:15:36;100192.41;;;14.40;100.00
33265;BME280;31404;53.974;-1.086;2023-07-31T01:20:35;100186.74;;;14.14;100.00
33265;BME280;31404;53.974;-1.086;2023-07-31T01:35:36;100159.21;;;13.40;100.00
33265;BME280;31404;53.974;-1.086;2023-07-31T01:40:35;100152.90;;;13.64;100.00
33265;BME280;31404;53.974;-1.086;2023-07-31T01:45:35;100142.26;;;12.69;100.00
33265;BME280;31404;53.974;-1.086;2023-07-31T01:50:34;100139.83;;;13.13;100.00
33265;BME280;31404;53.974;-1.086;2023-07-31T01:55:34;100128.38;;;13.86;100.00
33265;BME280;31404;53.974;-1.086;2023-07-31T02:00:35;100115.88;;;15.24;100.00
33265;BME280;31404;53.974;-1.086;2023-07-31T02:05:35;100114.84;;;14.91;100.00
33265;BME280;31404;53.974;-1.086;2023-07-31T02:10:35;100112.78;;;15.67;100.00
33265;BME280;31404;53.974;-1.086;2023-07-31T02:20:34;100100.77;;;16.34;100.00
33265;BME280;31404;53.974;-1.086;2023-07-31T02:25:35;100100.20;;;15.79;100.00
33265;BME280;31404;53.974;-1.086;2023-07-31T02:30:35;100095.11;;;15.88;100.00
33265;BME280;31404;53.974;-1.086;2023-07-31T02:35:34;100090.85;;;14.16;100.00
33265;BME280;31404;53.974;-1.086;2023-07-31T02:40:34;100085.73;;;16.00;100.00
33265;BME280;31404;53.974;-1.086;2023-07-31T02:45:35;100082.19;;;15.88;100.00
33265;BME280;31404;53.974;-1.086;2023-07-31T02:50:35;100079.66;;;15.59;100.00
33265;BME280;31404;53.974;-1.086;2023-07-31T02:55:35;100078.34;;;15.84;100.00
33265;BME280;31404;53.974;-1.086;2023-07-31T03:00:35;100078.55;;;16.46;100.00
33265;BME280;31404;53.974;-1.086;2023-07-31T03:05:34;100068.38;;;17.43;100.00
33265;BME280;31404;53.974;-1.086;2023-07-31T03:10:35;100059.32;;;17.40;100.00
33265;BME280;31404;53.974;-1.086;2023-07-31T03:15:35;100058.02;;;15.82;100.00
33265;BME280;31404;53.974;-1.086;2023-07-31T03:20:35;100060.51;;;15.52;100.00
33265;BME280;31404;53.974;-1.086;2023-07-31T03:25:35;100064.48;;;16.98;100.00
33265;BME280;31404;53.974;-1.086;2023-07-31T03:30:36;100069.75;;;17.25;100.00
33265;BME280;31404;53.974;-1.086;2023-07-31T03:35:35;100074.48;;;16.55;100.00
33265;BME280;31404;53.974;-1.086;2023-07-31T03:40:35;100075.52;;;17.24;100.00
33265;BME280;31404;53.974;-1.086;2023-07-31T03:45:35;100077.05;;;17.19;100.00
33265;BME280;31404;53.974;-1.086;2023-07-31T03:50:35;100076.49;;;17.39;100.00
33265;BME280;31404;53.974;-1.086;2023-07-31T03:55:35;100073.87;;;17.11;100.00
33265;BME280;31404;53.974;-1.086;2023-07-31T04:00:35;100068.84;;;17.05;100.00
33265;BME280;31404;53.974;-1.086;2023-07-31T04:10:35;100060.75;;;17.11;100.00
33265;BME280;31404;53.974;-1.086;2023-07-31T04:15:35;100055.26;;;17.41;100.00
33265;BME280;31404;53.974;-1.086;2023-07-31T04:20:34;100055.76;;;17.00;100.00
33265;BME280;31404;53.974;-1.086;2023-07-31T04:25:34;100050.85;;;17.44;100.00
33265;BME280;31404;53.974;-1.086;2023-07-31T04:30:35;100051.76;;;18.39;100.00
33265;BME280;31404;53.974;-1.086;2023-07-31T04:35:35;100054.37;;;17.30;100.00
33265;BME280;31404;53.974;-1.086;2023-07-31T04:40:35;100048.20;;;17.59;100.00
33265;BME280;31404;53.974;-1.086;2023-07-31T04:45:35;100050.65;;;16.57;100.00
33265;BME280;31404;53.974;-1.086;2023-07-31T04:50:35;100050.98;;;16.73;100.00
33265;BME280;31404;53.974;-1.086;2023-07-31T04:55:35;100044.92;;;15.98;100.00
33265;BME280;31404;53.974;-1.086;2023-07-31T05:00:35;100051.19;;;16.24;100.00
33265;BME280;31404;53.974;-1.086;2023-07-31T05:05:35;100051.35;;;16.10;100.00
33265;BME280;31404;53.974;-1.086;2023-07-31T05:10:34;100052.96;;;15.67;100.00
33265;BME280;31404;53.974;-1.086;2023-07-31T05:15:34;100062.30;;;15.29;100.00
33265;BME280;31404;53.974;-1.086;2023-07-31T05:20:35;100062.59;;;15.24;100.00
33265;BME280;31404;53.974;-1.086;2023-07-31T05:25:37;100063.88;;;15.37;100.00
33265;BME280;31404;53.974;-1.086;2023-07-31T05:30:35;100059.99;;;15.83;100.00
33265;BME280;31404;53.974;-1.086;2023-07-31T05:35:35;100058.67;;;15.90;100.00
33265;BME280;31404;53.974;-1.086;2023-07-31T05:40:35;100071.24;;;16.53;100.00
33265;BME280;31404;53.974;-1.086;2023-07-31T05:45:34;100065.67;;;17.46;100.00
33265;BME280;31404;53.974;-1.086;2023-07-31T05:50:35;100063.61;;;17.38;100.00
33265;BME280;31404;53.974;-1.086;2023-07-31T05:55:35;100061.60;;;16.49;100.00
33265;BME280;31404;53.974;-1.086;2023-07-31T06:00:34;100055.82;;;16.44;100.00
33265;BME280;31404;53.974;-1.086;2023-07-31T06:05:35;100052.68;;;16.77;100.00
33265;BME280;31404;53.974;-1.086;2023-07-31T06:10:35;100043.80;;;17.88;100.00
33265;BME280;31404;53.974;-1.086;2023-07-31T06:15:34;100039.55;;;18.46;100.00
33265;BME280;31404;53.974;-1.086;2023-07-31T06:20:35;100032.29;;;18.15;100.00
33265;BME280;31404;53.974;-1.086;2023-07-31T06:25:35;100035.74;;;18.60;100.00
33265;BME280;31404;53.974;-1.086;2023-07-31T06:30:35;100030.73;;;17.98;100.00
33265;BME280;31404;53.974;-1.086;2023-07-31T06:35:34;100031.00;;;18.66;100.00
33265;BME280;31404;53.974;-1.086;2023-07-31T06:40:35;100026.02;;;18.20;100.00
33265;BME280;31404;53.974;-1.086;2023-07-31T06:45:37;100027.81;;;16.57;100.00
33265;BME280;31404;53.974;-1.086;2023-07-31T06:50:35;100023.43;;;16.99;100.00
33265;BME280;31404;53.974;-1.086;2023-07-31T06:55:35;100011.65;;;17.73;100.00
33265;BME280;31404;53.974;-1.086;2023-07-31T07:00:35;100003.77;;;17.79;100.00
33265;BME280;31404;53.974;-1.086;2023-07-31T07:05:35;100004.49;;;17.72;100.00
33265;BME280;31404;53.974;-1.086;2023-07-31T07:10:35;100000.65;;;17.66;100.00
33265;BME280;31404;53.974;-1.086;2023-07-31T07:15:34;99995.17;;;18.53;100.00
33265;BME280;31404;53.974;-1.086;2023-07-31T07:20:36;99998.39;;;19.12;100.00
33265;BME280;31404;53.974;-1.086;2023-07-31T07:25:37;100003.41;;;18.98;100.00
33265;BME280;31404;53.974;-1.086;2023-07-31T07:30:35;100015.09;;;17.22;100.00
33265;BME280;31404;53.974;-1.086;2023-07-31T07:35:35;100025.84;;;17.00;100.00
33265;BME280;31404;53.974;-1.086;2023-07-31T07:45:35;100018.85;;;17.28;100.00
33265;BME280;31404;53.974;-1.086;2023-07-31T07:50:38;100007.10;;;17.72;100.00
33265;BME280;31404;53.974;-1.086;2023-07-31T07:55:35;100013.28;;;17.60;100.00
33265;BME280;31404;53.974;-1.086;2023-07-31T08:00:34;100015.63;;;16.33;100.00
33265;BME280;31404;53.974;-1.086;2023-07-31T08:05:35;100007.27;;;16.29;100.00
33265;BME280;31404;53.974;-1.086;2023-07-31T08:10:35;100015.69;;;16.85;100.00
33265;BME280;31404;53.974;-1.086;2023-07-31T08:15:34;100015.80;;;15.14;100.00
33265;BME280;31404;53.974;-1.086;2023-07-31T08:20:35;100025.75;;;16.22;100.00
33265;BME280;31404;53.974;-1.086;2023-07-31T08:25:35;100024.59;;;17.02;100.00
33265;BME280;31404;53.974;-1.086;2023-07-31T08:30:35;100030.61;;;16.39;100.00
33265;BME280;31404;53.974;-1.086;2023-07-31T08:35:38;100026.27;;;16.19;100.00
33265;BME280;31404;53.974;-1.086;2023-07-31T08:40:36;100020.95;;;15.38;100.00
33265;BME280;31404;53.974;-1.086;2023-07-31T08:45:34;100026.42;;;15.27;100.00
33265;BME280;31404;53.974;-1.086;2023-07-31T08:50:35;100015.58;;;13.92;100.00
33265;BME280;31404;53.974;-1.086;2023-07-31T08:55:35;99996.21;;;14.93;100.00
33265;BME280;31404;53.974;-1.086;2023-07-31T09:00:35;99996.83;;;15.59;100.00
33265;BME280;31404;53.974;-1.086;2023-07-31T09:05:36;99995.98;;;15.34;100.00
33265;BME280;31404;53.974;-1.086;2023-07-31T09:10:35;99999.36;;;16.56;100.00
33265;BME280;31404;53.974;-1.086;2023-07-31T09:15:35;99993.99;;;16.01;100.00
33265;BME280;31404;53.974;-1.086;2023-07-31T09:20:36;100007.35;;;14.87;100.00
33265;BME280;31404;53.974;-1.086;2023-07-31T09:25:36;100001.48;;;15.56;100.00
33265;BME280;31404;53.974;-1.086;2023-07-31T09:35:35;99982.87;;;14.88;100.00
33265;BME280;31404;53.974;-1.086;2023-07-31T09:40:37;99961.79;;;15.83;100.00
33265;BME280;31404;53.974;-1.086;2023-07-31T09:45:37;99950.48;;;13.99;100.00
33265;BME280;31404;53.974;-1.086;2023-07-31T09:50:37;99964.66;;;15.02;100.00
33265;BME280;31404;53.974;-1.086;2023-07-31T09:55:36;99971.14;;;16.58;100.00
33265;BME280;31404;53.974;-1.086;2023-07-31T10:00:35;99963.95;;;17.15;100.00
33265;BME280;31404;53.974;-1.086;2023-07-31T10:05:36;99961.19;;;15.87;100.00
33265;BME280;31404;53.974;-1.086;2023-07-31T10:10:36;99972.38;;;14.08;100.00
33265;BME280;31404;53.974;-1.086;2023-07-31T10:15:36;99977.93;;;14.74;100.00
33265;BME280;31404;53.974;-1.086;2023-07-31T10:20:35;99978.87;;;14.17;100.00
33265;BME280;31404;53.974;-1.086;2023-07-31T10:25:35;99964.53;;;15.58;100.00
33265;BME280;31404;53.974;-1.086;2023-07-31T10:30:35;99959.85;;;15.36;100.00
33265;BME280;31404;53.974;-1.086;2023-07-31T10:35:35;99959.09;;;15.55;100.00
33265;BME280;31404;53.974;-1.086;2023-07-31T10:40:35;99964.84;;;15.49;100.00
33265;BME280;31404;53.974;-1.086;2023-07-31T10:45:36;99966.81;;;15.85;100.00
33265;BME280;31404;53.974;-1.086;2023-07-31T10:50:38;99963.04;;;15.38;100.00
33265;BME280;31404;53.974;-1.086;2023-07-31T11:00:38;99973.35;;;15.09;100.00
33265;BME280;31404;53.974;-1.086;2023-07-31T11:10:35;99942.90;;;15.68;100.00
33265;BME280;31404;53.974;-1.086;2023-07-31T11:15:35;99910.20;;;15.38;100.00
33265;BME280;31404;53.974;-1.086;2023-07-31T11:20:36;99905.32;;;15.67;100.00
33265;BME280;31404;53.974;-1.086;2023-07-31T11:25:35;99913.40;;;16.04;100.00
33265;BME280;31404;53.974;-1.086;2023-07-31T11:30:34;99921.07;;;16.44;100.00
33265;BME280;31404;53.974;-1.086;2023-07-31T11:35:36;99906.69;;;16.35;100.00
33265;BME280;31404;53.974;-1.086;2023-07-31T11:45:35;99916.74;;;15.81;100.00
33265;BME280;31404;53.974;-1.086;2023-07-31T11:50:35;99948.97;;;16.02;100.00
33265;BME280;31404;53.974;-1.086;2023-07-31T11:55:35;99955.45;;;15.02;100.00
33265;BME280;31404;53.974;-1.086;2023-07-31T12:00:35;99951.90;;;16.61;100.00
33265;BME280;31404;53.974;-1.086;2023-07-31T12:05:36;99955.53;;;16.58;100.00
33265;BME280;31404;53.974;-1.086;2023-07-31T12:10:35;99958.44;;;15.34;100.00
33265;BME280;31404;53.974;-1.086;2023-07-31T12:15:37;99951.92;;;15.00;100.00
33265;BME280;31404;53.974;-1.086;2023-07-31T12:20:39;99948.17;;;15.50;100.00
33265;BME280;31404;53.974;-1.086;2023-07-31T12:25:35;99949.81;;;15.20;100.00
33265;BME280;31404;53.974;-1.086;2023-07-31T12:30:35;99950.85;;;16.38;100.00
33265;BME280;31404;53.974;-1.086;2023-07-31T12:35:37;99940.25;;;14.80;100.00
33265;BME280;31404;53.974;-1.086;2023-07-31T12:40:37;99934.99;;;14.55;100.00
33265;BME280;31404;53.974;-1.086;2023-07-31T12:45:35;99939.15;;;14.98;100.00
33265;BME280;31404;53.974;-1.086;2023-07-31T12:50:36;99922.66;;;15.25;100.00
33265;BME280;31404;53.974;-1.086;2023-07-31T12:55:35;99923.10;;;15.44;100.00
33265;BME280;31404;53.974;-1.086;2023-07-31T13:00:35;99915.45;;;14.65;100.00
33265;BME280;31404;53.974;-1.086;2023-07-31T13:05:35;99901.61;;;15.12;100.00
33265;BME280;31404;53.974;-1.086;2023-07-31T13:10:35;99913.04;;;14.84;100.00
33265;BME280;31404;53.974;-1.086;2023-07-31T13:15:35;99902.23;;;14.96;100.00
33265;BME280;31404;53.974;-1.086;2023-07-31T13:20:34;99921.41;;;13.10;100.00
33265;BME280;31404;53.974;-1.086;2023-07-31T13:25:36;99915.33;;;13.64;100.00
33265;BME280;31404;53.974;-1.086;2023-07-31T13:30:35;99917.71;;;14.20;100.00
33265;BME280;31404;53.974;-1.086;2023-07-31T13:35:51;99903.59;;;14.84;100.00
33265;BME280;31404;53.974;-1.086;2023-07-31T13:40:35;99887.89;;;13.97;100.00
33265;BME280;31404;53.974;-1.086;2023-07-31T13:45:35;99885.09;;;14.98;100.00
33265;BME280;31404;53.974;-1.086;2023-07-31T13:50:35;99882.24;;;13.77;100.00
33265;BME280;31404;53.974;-1.086;2023-07-31T13:55:35;99873.92;;;15.25;100.00
33265;BME280;31404;53.974;-1.086;2023-07-31T14:00:35;99874.14;;;14.80;100.00
33265;BME280;31404;53.974;-1.086;2023-07-31T14:05:35;99876.95;;;14.18;100.00
33265;BME280;31404;53.974;-1.086;2023-07-31T14:10:35;99869.70;;;15.14;100.00
33265;BME280;31404;53.974;-1.086;2023-07-31T14:15:34;99865.99;;;15.99;100.00
33265;BME280;31404;53.974;-1.086;2023-07-31T14:20:35;99864.43;;;16.69;100.00
33265;BME280;31404;53.974;-1.086;2023-07-31T14:25:35;99860.35;;;16.60;100.00
33265;BME280;31404;53.974;-1.086;2023-07-31T14:30:35;99856.19;;;16.81;100.00
33265;BME280;31404;53.974;-1.086;2023-07-31T14:35:35;99869.03;;;15.42;100.00
33265;BME280;31404;53.974;-1.086;2023-07-31T14:40:35;99865.57;;;16.24;100.00
33265;BME280;31404;53.974;-1.086;2023-07-31T14:45:35;99873.03;;;15.54;100.00
33265;BME280;31404;53.974;-1.086;2023-07-31T14:50:35;99869.54;;;15.31;100.00
33265;BME280;31404;53.974;-1.086;2023-07-31T14:55:35;99861.84;;;14.97;100.00
33265;BME280;31404;53.974;-1.086;2023-07-31T15:00:34;99861.85;;;17.01;100.00
33265;BME280;31404;53.974;-1.086;2023-07-31T15:05:35;99861.53;;;16.54;100.00
33265;BME280;31404;53.974;-1.086;2023-07-31T15:10:35;99856.84;;;16.43;100.00
33265;BME280;31404;53.974;-1.086;2023-07-31T15:15:35;99853.13;;;16.03;100.00
33265;BME280;31404;53.974;-1.086;2023-07-31T15:20:35;99847.18;;;16.55;100.00
33265;BME280;31404;53.974;-1.086;2023-07-31T15:25:35;99846.75;;;16.19;100.00
33265;BME280;31404;53.974;-1.086;2023-07-31T15:30:36;99852.70;;;13.45;100.00
33265;BME280;31404;53.974;-1.086;2023-07-31T15:35:34;99862.49;;;13.27;100.00
33265;BME280;31404;53.974;-1.086;2023-07-31T15:40:35;99851.81;;;13.78;100.00
33265;BME280;31404;53.974;-1.086;2023-07-31T15:45:35;99851.04;;;13.51;100.00
33265;BME280;31404;53.974;-1.086;2023-07-31T15:50:35;99840.49;;;14.04;100.00
33265;BME280;31404;53.974;-1.086;2023-07-31T15:55:35;99834.31;;;14.68;100.00
33265;BME280;31404;53.974;-1.086;2023-07-31T16:00:35;99828.10;;;14.78;100.00
33265;BME280;31404;53.974;-1.086;2023-07-31T16:05:34;99823.00;;;13.83;100.00
33265;BME280;31404;53.974;-1.086;2023-07-31T16:10:35;99821.50;;;12.93;100.00
33265;BME280;31404;53.974;-1.086;2023-07-31T16:15:35;99816.74;;;13.04;100.00
33265;BME280;31404;53.974;-1.086;2023-07-31T16:20:35;99811.49;;;14.12;100.00
33265;BME280;31404;53.974;-1.086;2023-07-31T16:25:35;99812.13;;;15.17;100.00
33265;BME280;31404;53.974;-1.086;2023-07-31T16:30:35;99805.75;;;15.11;100.00
33265;BME280;31404;53.974;-1.086;2023-07-31T16:35:35;99796.47;;;15.95;100.00
33265;BME280;31404;53.974;-1.086;2023-07-31T16:40:35;99801.19;;;14.80;100.00
33265;BME280;31404;53.974;-1.086;2023-07-31T16:45:35;99798.93;;;14.28;100.00
33265;BME280;31404;53.974;-1.086;2023-07-31T16:50:35;99794.12;;;13.90;100.00
33265;BME280;31404;53.974;-1.086;2023-07-31T16:55:34;99786.23;;;13.56;100.00
33265;BME280;31404;53.974;-1.086;2023-07-31T17:00:35;99771.90;;;13.45;100.00
33265;BME280;31404;53.974;-1.086;2023-07-31T17:05:35;99772.74;;;14.90;100.00
33265;BME280;31404;53.974;-1.086;2023-07-31T17:10:35;99760.86;;;15.63;100.00
33265;BME280;31404;53.974;-1.086;2023-07-31T17:15:35;99760.91;;;14.62;100.00
33265;BME280;31404;53.974;-1.086;2023-07-31T17:20:35;99754.43;;;15.61;100.00
33265;BME280;31404;53.974;-1.086;2023-07-31T17:25:35;99757.25;;;14.92;100.00
33265;BME280;31404;53.974;-1.086;2023-07-31T17:30:35;99750.11;;;14.27;100.00
33265;BME280;31404;53.974;-1.086;2023-07-31T17:35:35;99744.52;;;15.13;100.00
33265;BME280;31404;53.974;-1.086;2023-07-31T17:40:36;99743.54;;;14.69;100.00
33265;BME280;31404;53.974;-1.086;2023-07-31T17:45:36;99734.45;;;16.26;100.00
33265;BME280;31404;53.974;-1.086;2023-07-31T17:50:35;99738.17;;;13.60;100.00
33265;BME280;31404;53.974;-1.086;2023-07-31T17:55:35;99735.93;;;14.94;100.00
33265;BME280;31404;53.974;-1.086;2023-07-31T18:00:35;99724.37;;;15.86;100.00
33265;BME280;31404;53.974;-1.086;2023-07-31T18:05:36;99733.26;;;14.16;100.00
33265;BME280;31404;53.974;-1.086;2023-07-31T18:10:35;99731.45;;;14.46;100.00
33265;BME280;31404;53.974;-1.086;2023-07-31T18:15:35;99728.22;;;13.61;100.00
33265;BME280;31404;53.974;-1.086;2023-07-31T18:20:36;99730.67;;;14.12;100.00
33265;BME280;31404;53.974;-1.086;2023-07-31T18:25:35;99732.70;;;14.88;100.00
33265;BME280;31404;53.974;-1.086;2023-07-31T18:30:35;99730.08;;;12.95;100.00
33265;BME280;31404;53.974;-1.086;2023-07-31T18:40:35;99739.40;;;14.52;100.00
33265;BME280;31404;53.974;-1.086;2023-07-31T18:45:35;99739.52;;;13.18;100.00
33265;BME280;31404;53.974;-1.086;2023-07-31T18:55:35;99730.81;;;12.99;100.00
33265;BME280;31404;53.974;-1.086;2023-07-31T19:00:35;99731.49;;;14.02;100.00
33265;BME280;31404;53.974;-1.086;2023-07-31T19:05:35;99733.20;;;13.91;100.00
33265;BME280;31404;53.974;-1.086;2023-07-31T19:10:36;99729.20;;;15.43;100.00
33265;BME280;31404;53.974;-1.086;2023-07-31T19:15:35;99722.71;;;15.35;100.00
33265;BME280;31404;53.974;-1.086;2023-07-31T19:20:35;99721.30;;;16.28;100.00
33265;BME280;31404;53.974;-1.086;2023-07-31T19:25:35;99729.82;;;14.94;100.00
33265;BME280;31404;53.974;-1.086;2023-07-31T19:30:35;99726.79;;;14.65;100.00
33265;BME280;31404;53.974;-1.086;2023-07-31T19:35:35;99725.38;;;14.60;100.00
33265;BME280;31404;53.974;-1.086;2023-07-31T19:40:35;99726.75;;;14.26;100.00
33265;BME280;31404;53.974;-1.086;2023-07-31T19:45:35;99725.63;;;14.58;100.00
33265;BME280;31404;53.974;-1.086;2023-07-31T19:50:35;99718.49;;;15.36;100.00
33265;BME280;31404;53.974;-1.086;2023-07-31T19:55:35;99706.96;;;16.68;100.00
33265;BME280;31404;53.974;-1.086;2023-07-31T20:00:35;99699.91;;;17.10;100.00
33265;BME280;31404;53.974;-1.086;2023-07-31T20:05:35;99694.22;;;18.39;100.00
33265;BME280;31404;53.974;-1.086;2023-07-31T20:10:35;99692.88;;;18.45;100.00
33265;BME280;31404;53.974;-1.086;2023-07-31T20:15:35;99692.50;;;17.68;100.00
33265;BME280;31404;53.974;-1.086;2023-07-31T20:20:35;99689.09;;;17.78;100.00
33265;BME280;31404;53.974;-1.086;2023-07-31T20:25:35;99684.17;;;16.92;100.00
33265;BME280;31404;53.974;-1.086;2023-07-31T20:30:35;99680.14;;;16.51;100.00
33265;BME280;31404;53.974;-1.086;2023-07-31T20:35:35;99669.75;;;16.63;100.00
33265;BME280;31404;53.974;-1.086;2023-07-31T20:40:35;99668.48;;;15.24;100.00
33265;BME280;31404;53.974;-1.086;2023-07-31T20:45:35;99661.73;;;16.04;100.00
33265;BME280;31404;53.974;-1.086;2023-07-31T20:50:35;99660.95;;;15.73;100.00
33265;BME280;31404;53.974;-1.086;2023-07-31T20:55:37;99659.00;;;16.22;100.00
33265;BME280;31404;53.974;-1.086;2023-07-31T21:00:35;99654.79;;;15.91;100.00
33265;BME280;31404;53.974;-1.086;2023-07-31T21:05:35;99649.15;;;15.64;100.00
33265;BME280;31404;53.974;-1.086;2023-07-31T21:20:36;99643.96;;;15.08;100.00
33265;BME280;31404;53.974;-1.086;2023-07-31T21:25:35;99650.34;;;14.03;100.00
33265;BME280;31404;53.974;-1.086;2023-07-31T21:30:35;99641.36;;;16.16;100.00
33265;BME280;31404;53.974;-1.086;2023-07-31T21:35:35;99648.81;;;14.55;100.00
33265;BME280;31404;53.974;-1.086;2023-07-31T21:40:39;99650.66;;;13.69;100.00
33265;BME280;31404;53.974;-1.086;2023-07-31T21:50:42;99640.83;;;14.42;100.00
33265;BME280;31404;53.974;-1.086;2023-07-31T21:55:38;99642.92;;;13.54;100.00
33265;BME280;31404;53.974;-1.086;2023-07-31T22:00:35;99644.25;;;14.62;100.00
33265;BME280;31404;53.974;-1.086;2023-07-31T22:05:35;99636.68;;;12.35;100.00
33265;BME280;31404;53.974;-1.086;2023-07-31T22:10:40;99638.74;;;12.84;100.00
33265;BME280;31404;53.974;-1.086;2023-07-31T22:15:41;99640.84;;;12.29;100.00
33265;BME280;31404;53.974;-1.086;2023-07-31T22:20:37;99638.54;;;13.32;100.00
33265;BME280;31404;53.974;-1.086;2023-07-31T22:25:38;99633.26;;;12.98;100.00
33265;BME280;31404;53.974;-1.086;2023-07-31T22:30:38;99633.46;;;13.34;100.00
33265;BME280;31404;53.974;-1.086;2023-07-31T22:40:35;99627.41;;;13.14;100.00
33265;BME280;31404;53.974;-1.086;2023-07-31T22:45:35;99628.46;;;12.63;100.00
33265;BME280;31404;53.974;-1.086;2023-07-31T22:55:35;99628.36;;;12.31;100.00
33265;BME280;31404;53.974;-1.086;2023-07-31T23:00:39;99628.73;;;12.58;100.00
33265;BME280;31404;53.974;-1.086;2023-07-31T23:10:37;99618.13;;;12.93;100.00
33265;BME280;31404;53.974;-1.086;2023-07-31T23:15:34;99619.65;;;14.86;100.00
33265;BME280;31404;53.974;-1.086;2023-07-31T23:20:35;99615.71;;;15.03;100.00
33265;BME280;31404;53.974;-1.086;2023-07-31T23:35:38;99615.24;;;15.65;100.00
33265;BME280;31404;53.974;-1.086;2023-07-31T23:40:35;99619.87;;;14.52;100.00
33265;BME280;31404;53.974;-1.086;2023-07-31T23:45:36;99625.04;;;14.13;100.00
33265;BME280;31404;53.974;-1.086;2023-07-31T23:50:35;99620.44;;;13.97;100.00
33265;BME280;31404;53.974;-1.086;2023-07-31T23:55:35;99615.68;;;14.29;100.00
